createdAt,value
2023-02-09T00:00:13.210Z,12.05
2023-02-09T00:03:17.150Z,13.93
2023-02-09T00:06:21.925Z,12.60
2023-02-09T00:09:24.466Z,12.88
2023-02-09T00:12:46.144Z,9.43
2023-02-09T00:15:57.282Z,11.45
2023-02-09T00:19:00.165Z,11.20
2023-02-09T00:22:02.798Z,5.27
2023-02-09T00:25:05.996Z,5.25
2023-02-09T00:28:08.585Z,8.23
2023-02-09T00:31:13.024Z,5.28
2023-02-09T00:34:16.181Z,4.82
2023-02-09T00:37:19.023Z,9.27
2023-02-09T00:40:21.766Z,5.75
2023-02-09T00:43:24.580Z,9.98
2023-02-09T00:46:27.885Z,9.10
2023-02-09T00:49:31.135Z,7.47
2023-02-09T00:52:35.471Z,4.50
2023-02-09T00:55:38.388Z,6.28
2023-02-09T00:58:42.055Z,4.30
2023-02-09T01:01:46.104Z,4.87
2023-02-09T01:04:50.660Z,7.65
2023-02-09T01:07:53.719Z,3.80
2023-02-09T01:10:56.908Z,8.50
2023-02-09T01:14:00.493Z,9.18
2023-02-09T01:17:03.170Z,6.85
2023-02-09T01:20:07.763Z,8.32
2023-02-09T01:23:10.537Z,4.43
2023-02-09T01:26:14.625Z,9.15
2023-02-09T01:29:18.817Z,9.13
2023-02-09T01:32:21.899Z,6.82
2023-02-09T01:35:24.490Z,10.73
2023-02-09T01:38:27.329Z,13.93
2023-02-09T01:41:30.738Z,10.05
2023-02-09T01:44:39.801Z,7.57
2023-02-09T01:47:45.601Z,8.40
2023-02-09T01:50:52.061Z,8.50
2023-02-09T01:53:54.616Z,11.90
2023-02-09T01:57:01.902Z,7.57
2023-02-09T02:00:09.039Z,10.20
2023-02-09T02:03:22.429Z,10.50
2023-02-09T02:06:25.594Z,6.95
2023-02-09T02:09:28.230Z,3.67
2023-02-09T02:12:32.693Z,8.93
2023-02-09T02:16:05.450Z,2.97
2023-02-09T02:19:26.840Z,7.12
2023-02-09T02:23:07.986Z,4.78
2023-02-09T02:26:38.527Z,9.23
2023-02-09T02:30:16.165Z,9.10
2023-02-09T02:33:45.852Z,7.75
2023-02-09T02:37:18.894Z,9.85
2023-02-09T02:40:43.752Z,8.13
2023-02-09T02:44:06.368Z,8.03
2023-02-09T02:47:11.598Z,9.35
2023-02-09T02:50:16.809Z,8.02
2023-02-09T02:53:22.884Z,7.43
2023-02-09T02:56:42.093Z,3.83
2023-02-09T02:59:49.080Z,8.27
2023-02-09T03:02:58.835Z,6.03
2023-02-09T03:06:03.550Z,6.90
2023-02-09T03:09:06.911Z,7.18
2023-02-09T03:12:17.810Z,10.27
2023-02-09T03:15:33.479Z,6.50
2023-02-09T03:19:12.833Z,6.20
2023-02-09T03:22:25.143Z,8.20
2023-02-09T03:25:31.376Z,11.00
2023-02-09T03:28:36.273Z,11.65
2023-02-09T03:31:39.849Z,10.13
2023-02-09T03:34:42.810Z,8.90
2023-02-09T03:37:45.363Z,10.40
2023-02-09T03:40:48.282Z,8.45
2023-02-09T03:44:09.465Z,8.57
2023-02-09T03:47:12.549Z,9.03
2023-02-09T03:50:16.764Z,9.05
2023-02-09T03:53:20.458Z,10.48
2023-02-09T03:56:25.026Z,9.25
2023-02-09T03:59:28.420Z,8.25
2023-02-09T04:02:31.204Z,7.87
2023-02-09T04:05:34.009Z,8.70
2023-02-09T04:08:36.741Z,8.60
2023-02-09T04:11:40.130Z,9.07
2023-02-09T04:14:42.803Z,8.70
2023-02-09T04:17:45.601Z,8.60
2023-02-09T04:20:50.409Z,8.98
2023-02-09T04:23:53.388Z,9.13
2023-02-09T04:26:56.000Z,9.95
2023-02-09T04:29:58.816Z,5.22
2023-02-09T04:33:01.561Z,9.00
2023-02-09T04:36:04.952Z,9.27
2023-02-09T04:39:07.651Z,4.55
2023-02-09T04:42:10.612Z,9.18
2023-02-09T04:45:13.342Z,9.52
2023-02-09T04:48:18.986Z,8.80
2023-02-09T04:51:21.645Z,9.43
2023-02-09T04:54:24.469Z,9.52
2023-02-09T04:57:45.674Z,6.32
2023-02-09T05:00:49.007Z,9.65
2023-02-09T05:03:52.170Z,9.47
2023-02-09T05:06:55.142Z,9.07
2023-02-09T05:09:57.682Z,9.25
2023-02-09T05:13:00.619Z,9.23
2023-02-09T05:16:07.719Z,9.57
2023-02-09T05:19:10.662Z,8.97
2023-02-09T05:22:14.409Z,10.30
2023-02-09T05:25:17.450Z,9.85
2023-02-09T05:28:20.003Z,10.50
2023-02-09T05:31:23.627Z,7.80
2023-02-09T05:34:26.346Z,8.60
2023-02-09T05:37:29.227Z,7.62
2023-02-09T05:40:32.731Z,10.35
2023-02-09T05:43:36.391Z,11.00
2023-02-09T05:46:38.992Z,9.95
2023-02-09T05:49:42.201Z,8.90
2023-02-09T05:52:45.460Z,4.40
2023-02-09T05:55:48.344Z,9.73
2023-02-09T05:58:50.854Z,8.93
2023-02-09T06:01:54.190Z,9.80
2023-02-09T06:04:57.126Z,8.73
2023-02-09T06:07:59.675Z,10.82
2023-02-09T06:11:06.142Z,10.85
2023-02-09T06:14:08.879Z,11.30
2023-02-09T06:17:11.795Z,9.57
2023-02-09T06:20:14.611Z,10.67
2023-02-09T06:23:19.742Z,8.52
2023-02-09T06:26:22.309Z,8.48
2023-02-09T06:29:25.192Z,10.93
2023-02-09T06:32:27.768Z,9.43
2023-02-09T06:35:30.780Z,11.87
2023-02-09T06:38:35.056Z,10.73
2023-02-09T06:41:38.069Z,11.18
2023-02-09T06:44:40.662Z,10.00
2023-02-09T06:47:44.474Z,12.55
2023-02-09T06:50:47.774Z,10.33
2023-02-09T06:53:50.868Z,10.18
2023-02-09T06:56:53.475Z,11.63
2023-02-09T06:59:56.599Z,12.45
2023-02-09T07:02:59.976Z,12.68
2023-02-09T07:06:05.227Z,10.07
2023-02-09T07:09:07.829Z,11.55
2023-02-09T07:12:10.710Z,10.07
2023-02-09T07:15:14.469Z,11.38
2023-02-09T07:18:17.333Z,10.30
2023-02-09T07:21:21.580Z,10.63
2023-02-09T07:24:24.709Z,10.43
2023-02-09T07:27:27.851Z,11.57
2023-02-09T07:30:31.008Z,11.88
2023-02-09T07:33:35.893Z,10.02
2023-02-09T07:36:38.901Z,15.03
2023-02-09T07:39:41.822Z,17.70
2023-02-09T07:42:44.712Z,9.00
2023-02-09T07:45:47.524Z,13.07
2023-02-09T07:48:50.620Z,13.95
2023-02-09T07:51:53.278Z,8.37
2023-02-09T07:54:56.329Z,12.40
2023-02-09T07:57:59.175Z,7.90
2023-02-09T08:01:04.796Z,15.25
2023-02-09T08:04:08.086Z,12.65
2023-02-09T08:07:10.746Z,14.03
2023-02-09T08:10:13.772Z,12.88
2023-02-09T08:13:16.513Z,13.77
2023-02-09T08:16:22.597Z,13.13
2023-02-09T08:19:25.419Z,13.77
2023-02-09T08:22:37.027Z,13.50
2023-02-09T08:25:39.687Z,12.20
2023-02-09T08:28:45.807Z,12.55
2023-02-09T08:32:08.515Z,12.73
2023-02-09T08:35:11.839Z,12.30
2023-02-09T08:38:14.672Z,13.70
2023-02-09T08:41:18.363Z,12.07
2023-02-09T08:44:20.989Z,14.32
2023-02-09T08:47:23.830Z,13.60
2023-02-09T08:50:27.616Z,13.05
2023-02-09T08:53:32.981Z,13.77
2023-02-09T08:56:36.586Z,12.98
2023-02-09T08:59:41.039Z,12.40
2023-02-09T09:02:44.991Z,20.12
2023-02-09T09:05:48.093Z,13.45
2023-02-09T09:08:51.730Z,14.73
2023-02-09T09:11:54.720Z,13.65
2023-02-09T09:14:57.388Z,12.93
2023-02-09T09:18:00.261Z,13.77
2023-02-09T09:21:02.850Z,16.00
2023-02-09T09:24:05.862Z,15.50
2023-02-09T09:27:09.190Z,14.50
2023-02-09T09:30:12.595Z,12.68
2023-02-09T09:33:15.230Z,13.65
2023-02-09T09:36:19.486Z,11.60
2023-02-09T09:39:22.321Z,11.33
2023-02-09T09:42:33.798Z,12.55
2023-02-09T09:45:38.523Z,11.43
2023-02-09T09:48:44.692Z,12.27
2023-02-09T09:51:52.671Z,13.90
2023-02-09T09:54:56.066Z,12.87
2023-02-09T09:58:01.658Z,13.52
2023-02-09T10:01:06.681Z,13.68
2023-02-09T10:04:14.336Z,8.98
2023-02-09T10:07:20.408Z,12.70
2023-02-09T10:10:31.311Z,11.03
2023-02-09T10:13:39.947Z,13.40
2023-02-09T10:16:44.709Z,13.20
2023-02-09T10:20:02.071Z,9.93
2023-02-09T10:23:05.166Z,8.13
2023-02-09T10:26:07.704Z,11.07
2023-02-09T10:29:13.614Z,11.15
2023-02-09T10:32:19.634Z,10.45
2023-02-09T10:35:26.618Z,11.00
2023-02-09T10:38:33.349Z,9.93
2023-02-09T10:41:38.276Z,11.13
2023-02-09T10:44:41.019Z,10.48
2023-02-09T10:47:57.884Z,8.88
2023-02-09T10:51:29.190Z,7.65
2023-02-09T10:54:32.502Z,7.60
2023-02-09T10:57:37.365Z,8.60
2023-02-09T11:01:00.208Z,11.30
2023-02-09T11:04:11.410Z,9.25
2023-02-09T11:07:18.469Z,8.00
2023-02-09T11:10:21.295Z,10.05
2023-02-09T11:13:26.308Z,7.13
2023-02-09T11:16:56.235Z,10.65
2023-02-09T11:20:05.155Z,10.00
2023-02-09T11:23:35.363Z,11.10
2023-02-09T11:26:51.880Z,9.60
2023-02-09T11:30:16.570Z,9.53
2023-02-09T11:33:22.434Z,10.30
2023-02-09T11:36:32.270Z,10.63
2023-02-09T11:39:46.384Z,8.77
2023-02-09T11:43:02.191Z,8.57
2023-02-09T11:46:12.527Z,9.67
2023-02-09T11:49:18.273Z,10.48
2023-02-09T11:52:44.555Z,11.25
2023-02-09T11:55:49.433Z,8.98
2023-02-09T11:59:03.962Z,8.98
2023-02-09T12:02:32.134Z,7.60
2023-02-09T12:05:35.007Z,8.85
2023-02-09T12:08:59.053Z,8.48
2023-02-09T12:12:24.322Z,7.53
2023-02-09T12:15:30.871Z,8.93
2023-02-09T12:18:35.187Z,7.13
2023-02-09T12:21:38.560Z,6.75
2023-02-09T12:24:41.531Z,6.03
2023-02-09T12:28:12.865Z,7.82
2023-02-09T12:31:26.700Z,8.15
2023-02-09T12:34:41.416Z,7.20
2023-02-09T12:38:22.210Z,6.57
2023-02-09T12:41:26.059Z,7.87
2023-02-09T12:44:28.731Z,10.73
2023-02-09T12:47:46.626Z,10.57
2023-02-09T12:50:52.870Z,9.63
2023-02-09T12:53:56.220Z,10.10
2023-02-09T12:57:18.043Z,9.35
2023-02-09T13:00:20.463Z,7.97
2023-02-09T13:03:24.747Z,6.95
2023-02-09T13:06:37.148Z,8.70
2023-02-09T13:09:41.057Z,8.82
2023-02-09T13:12:49.210Z,13.30
2023-02-09T13:16:03.712Z,8.50
2023-02-09T13:19:30.086Z,9.32
2023-02-09T13:23:10.730Z,9.13
2023-02-09T13:26:20.720Z,9.55
2023-02-09T13:29:31.749Z,9.82
2023-02-09T13:32:54.981Z,9.18
2023-02-09T13:36:38.265Z,9.13
2023-02-09T13:39:42.063Z,8.03
2023-02-09T13:43:05.705Z,6.82
2023-02-09T13:46:24.074Z,8.20
2023-02-09T13:49:29.008Z,9.50
2023-02-09T13:52:38.790Z,10.02
2023-02-09T13:55:45.447Z,13.67
2023-02-09T13:58:48.784Z,9.88
2023-02-09T14:01:53.917Z,10.23
2023-02-09T14:04:59.334Z,7.22
2023-02-09T14:08:02.175Z,8.52
2023-02-09T14:11:25.972Z,6.73
2023-02-09T14:14:54.596Z,10.40
2023-02-09T14:17:57.687Z,7.35
2023-02-09T14:21:13.564Z,10.88
2023-02-09T14:24:21.271Z,16.65
2023-02-09T14:27:26.677Z,16.53
2023-02-09T14:30:36.461Z,8.20
2023-02-09T14:33:39.100Z,8.35
2023-02-09T14:36:54.386Z,5.62
2023-02-09T14:40:12.594Z,7.35
2023-02-09T14:43:22.434Z,8.53
2023-02-09T14:46:25.137Z,10.88
2023-02-09T14:49:29.642Z,5.57
2023-02-09T14:52:33.390Z,6.70
2023-02-09T14:55:40.436Z,7.57
2023-02-09T14:58:43.250Z,6.93
2023-02-09T15:01:49.972Z,4.87
2023-02-09T15:04:54.380Z,10.57
2023-02-09T15:08:03.166Z,9.02
2023-02-09T15:11:27.656Z,8.50
2023-02-09T15:14:32.081Z,8.00
2023-02-09T15:17:34.610Z,7.95
2023-02-09T15:20:37.446Z,14.43
2023-02-09T15:23:39.972Z,9.18
2023-02-09T15:26:42.843Z,9.48
2023-02-09T15:29:45.504Z,8.87
2023-02-09T15:32:49.816Z,9.77
2023-02-09T15:35:52.481Z,11.02
2023-02-09T15:38:56.010Z,11.18
2023-02-09T15:42:31.330Z,13.48
2023-02-09T15:45:52.876Z,13.00
2023-02-09T15:48:55.852Z,13.90
2023-02-09T15:51:58.738Z,15.63
2023-02-09T15:55:02.256Z,13.07
2023-02-09T15:58:12.678Z,10.02
2023-02-09T16:01:16.855Z,12.73
2023-02-09T16:04:19.957Z,13.85
2023-02-09T16:07:25.365Z,12.25
2023-02-09T16:10:30.540Z,22.65
2023-02-09T16:13:33.128Z,13.25
2023-02-09T16:16:36.475Z,10.07
2023-02-09T16:19:39.942Z,10.50
2023-02-09T16:22:44.709Z,13.02
2023-02-09T16:25:49.095Z,21.45
2023-02-09T16:28:52.411Z,15.32
2023-02-09T16:31:55.304Z,14.43
2023-02-09T16:35:14.506Z,13.93
2023-02-09T16:38:20.022Z,14.40
2023-02-09T16:41:41.190Z,11.23
2023-02-09T16:44:45.136Z,9.88
2023-02-09T16:47:50.733Z,9.27
2023-02-09T16:50:54.523Z,8.07
2023-02-09T16:53:57.939Z,8.27
2023-02-09T16:57:00.966Z,8.63
2023-02-09T17:00:04.576Z,7.57
2023-02-09T17:03:17.099Z,10.87
2023-02-09T17:06:23.143Z,21.37
2023-02-09T17:09:25.950Z,34.28
2023-02-09T17:12:28.983Z,36.22
2023-02-09T17:15:36.910Z,35.08
2023-02-09T17:18:42.422Z,32.83
2023-02-09T17:21:45.430Z,32.30
2023-02-09T17:24:48.443Z,38.22
2023-02-09T17:27:51.227Z,50.92
2023-02-09T17:30:57.669Z,76.62
2023-02-09T17:34:02.490Z,71.17
2023-02-09T17:37:05.527Z,52.00
2023-02-09T17:40:12.705Z,39.33
2023-02-09T17:43:15.545Z,34.20
2023-02-09T17:46:19.325Z,33.05
2023-02-09T17:49:22.607Z,27.37
2023-02-09T17:52:25.140Z,30.12
2023-02-09T17:55:30.046Z,44.63
2023-02-09T17:58:34.018Z,28.38
2023-02-09T18:01:46.025Z,23.48
2023-02-09T18:04:49.198Z,18.50
2023-02-09T18:07:52.358Z,18.27
2023-02-09T18:10:58.670Z,15.60
2023-02-09T18:14:01.611Z,17.12
2023-02-09T18:17:04.449Z,11.88
2023-02-09T18:20:15.578Z,15.67
2023-02-09T18:23:18.677Z,18.48
2023-02-09T18:26:21.513Z,20.20
2023-02-09T18:29:29.306Z,21.52
2023-02-09T18:32:32.452Z,26.95
2023-02-09T18:35:39.486Z,25.67
2023-02-09T18:38:42.366Z,20.05
2023-02-09T18:41:47.387Z,18.33
2023-02-09T18:44:50.755Z,18.40
2023-02-09T18:47:54.265Z,23.33
2023-02-09T18:50:57.148Z,29.50
2023-02-09T18:54:00.368Z,25.58
2023-02-09T18:57:03.270Z,17.05
2023-02-09T19:00:07.245Z,15.00
2023-02-09T19:03:10.408Z,16.80
2023-02-09T19:06:13.663Z,11.33
2023-02-09T19:09:16.560Z,13.25
2023-02-09T19:12:19.680Z,12.95
2023-02-09T19:15:25.738Z,12.18
2023-02-09T19:18:28.971Z,13.73
2023-02-09T19:21:32.333Z,13.67
2023-02-09T19:24:35.905Z,16.95
2023-02-09T19:27:38.702Z,17.52
2023-02-09T19:30:42.226Z,18.98
2023-02-09T19:33:45.194Z,18.85
2023-02-09T19:36:48.712Z,19.07
2023-02-09T19:40:04.301Z,16.87
2023-02-09T19:43:07.448Z,17.10
2023-02-09T19:46:10.399Z,17.98
2023-02-09T19:49:13.936Z,17.87
2023-02-09T19:52:17.296Z,17.83
2023-02-09T19:55:20.400Z,13.02
2023-02-09T19:58:23.100Z,13.30
2023-02-09T20:01:27.089Z,13.60
2023-02-09T20:04:30.556Z,14.18
2023-02-09T20:07:33.517Z,12.70
2023-02-09T20:10:38.990Z,10.75
2023-02-09T20:13:41.796Z,11.98
2023-02-09T20:16:44.906Z,10.10
2023-02-09T20:19:47.737Z,11.40
2023-02-09T20:22:52.599Z,5.70
2023-02-09T20:25:55.441Z,8.50
2023-02-09T20:28:58.810Z,8.98
2023-02-09T20:32:02.132Z,7.82
2023-02-09T20:35:05.576Z,8.98
2023-02-09T20:38:08.860Z,7.00
2023-02-09T20:41:17.630Z,7.97
2023-02-09T20:44:38.811Z,8.90
2023-02-09T20:47:41.993Z,7.43
2023-02-09T20:50:45.594Z,8.15
2023-02-09T20:53:48.907Z,9.07
2023-02-09T20:56:51.529Z,8.30
2023-02-09T20:59:59.701Z,8.35
2023-02-09T21:03:02.455Z,8.02
2023-02-09T21:09:15.184Z,7.77
2023-02-09T21:12:18.065Z,6.78
2023-02-09T21:15:20.656Z,6.75
2023-02-09T21:18:25.260Z,10.95
2023-02-09T21:21:28.014Z,8.05
2023-02-09T21:24:30.825Z,6.13
2023-02-09T21:27:33.695Z,8.70
2023-02-09T21:30:36.719Z,8.05
2023-02-09T21:33:39.652Z,7.85
2023-02-09T21:36:42.607Z,7.47
2023-02-09T21:39:45.518Z,7.73
2023-02-09T21:42:49.125Z,7.62
2023-02-09T21:45:51.793Z,8.80
2023-02-09T21:48:55.248Z,11.63
2023-02-09T21:51:58.569Z,9.93
2023-02-09T21:55:01.705Z,8.43
2023-02-09T21:58:04.303Z,8.30
2023-02-09T22:01:07.760Z,7.43
2023-02-09T22:04:10.681Z,8.63
2023-02-09T22:07:14.139Z,7.60
2023-02-09T22:10:20.467Z,6.50
2023-02-09T22:13:23.098Z,5.93
2023-02-09T22:16:26.250Z,7.72
2023-02-09T22:19:28.806Z,7.28
2023-02-09T22:22:31.848Z,6.75
2023-02-09T22:25:35.920Z,7.90
2023-02-09T22:28:38.819Z,8.45
2023-02-09T22:31:41.770Z,8.75
2023-02-09T22:34:44.705Z,7.93
2023-02-09T22:37:47.244Z,7.70
2023-02-09T22:40:50.199Z,8.43
2023-02-09T22:43:55.539Z,8.27
2023-02-09T22:46:58.384Z,7.05
2023-02-09T22:50:01.024Z,7.30
2023-02-09T22:53:03.873Z,5.72
2023-02-09T22:56:07.925Z,7.27
2023-02-09T22:59:12.178Z,7.10
2023-02-09T23:02:14.769Z,8.52
2023-02-09T23:05:17.823Z,6.78
2023-02-09T23:08:22.337Z,7.20
2023-02-09T23:11:26.910Z,8.00
2023-02-09T23:14:29.537Z,6.60
2023-02-09T23:17:33.059Z,7.75
2023-02-09T23:20:35.564Z,7.32
2023-02-09T23:23:38.598Z,7.82
2023-02-09T23:26:41.359Z,6.80
2023-02-09T23:29:44.315Z,7.18
2023-02-09T23:32:49.365Z,6.90
2023-02-09T23:35:52.218Z,7.68
2023-02-09T23:38:56.753Z,6.68
2023-02-09T23:41:59.933Z,4.93
2023-02-09T23:45:02.522Z,5.10
2023-02-09T23:48:06.004Z,7.00
2023-02-09T23:51:12.466Z,6.50
2023-02-09T23:54:15.569Z,4.95
2023-02-09T23:57:20.152Z,7.30
